Brummen, Netherlands
Current Conditions -  °F | °C
As of 5:25 PM on Saturday 25 Oct 2014 (Local Time) from EHDL Reporting Station
Haze Haze  
Wind Chill: 57°   Ceiling: 4800
Heat Index: 57°   Visibility: 3mi
Dew Point: 55°   Wind: 7mph
Humidity: 94%   Direction: 190°S
Pressure: 30.06"   Gusts: NA
Location:  52.09°N, 6.16°E
Report Text: EHDL 251525Z AUTO 19006KT 5000 BR FEW011 SCT035 OVC048 14/13 Q1018 WHT
Loading
Personal Weather Stations






























Interactive Weather Map
Tropical Storm Tracking
New forecast layout! Learn more

10-Day Weather Forecast

Advertisements
Track Severe Weather on mobile